Startpagina
METAR-TAF:

METAR-TAF

Vliegvelden :

Yap, Yap Island, Micronesië

breedte: 09-29N, lengte: 138-05E, hoogte: 28 m

Actueel weer

Dit bericht is 27 minuten geleden gemaakt, om 22:55 UTC
Wind 10 kt uit het zuidzuidoosten
Temperatuur 27°C
Vochtigheid 89%
Druk 1011 hPa
Zicht: 19.3 km
Verspreide wolken op 1600 ft, Stapelwolken.
Verspreide wolken op 4000 ft
Geheel bewolkt op 12000 ft

METAR: PTYA 222255Z 15010KT 12SM SCT016TCU SCT040 OVC120 27/25 A2986 RMK TCU ALQDS SLP112 T02660254

Tijdstip: 09:22 (23:22 UTC)

Verwachting

Dit bericht is 5 uur en het 56 minuten geleden gemaakt, om 17:26 UTC
Verwachting geldig van 22 om 18 UTC tot 23 om 18 UTC
Wind 8 kt uit het oostzuidoosten
Zicht: 10 km
Verspreide wolken op 1600 ft
Gebroken wolken op 13000 ft
buien in de omgeving
Tijdelijke
van 22 om 18 UTC tot 22 om 22 UTC
Zicht: 6.4 km
Gebroken wolken op 1500 ft
regenbuien

TAF: PTYA 221726Z 2218/2318 12008KT P6SM VCSH SCT016 BKN130 TEMPO 2218/2222 4SM SHRA BKN015

Waarnemingen en weersverwachtingen van meer dan 4000 vliegvelden (METAR en TAF).

De beschikbare stations zijn de gele en rode punten op de kaart.

Ga met uw muis naar het station om de naam te zien.

Klik dan om waarnemingen en weersverwachtingen te zien.

kaart wijzigen: klik op de groene knoppen met een zwart kruis om in te zoomen, op de groene knop met een streepje om uit te zoomen of op de groene pijlen voor aangrenzende kaarten.


METAR-TAF: